PWSweather.com
Personal Weather Stations
Station Observations
BALTRELAY
Relay, Baltimore, MD 21227

RelayBaltimore, MD 21227

Lat: 39.24588, Lon: -76.719772

Elevation: 221

Station Type: Davis Vantage Pro2 (6153)

http://www.relayweather.com

Latest ConditionsUpdated 4:30:04 PM GMT Tuesday, Sep 2, 2014
Currently Today's Max Today's Min Today's Average
Temperature 89.1°F31.7°C 90.6°F32.6°C 73.4°F23.0°C 78.9°F26.1°C
Dew Point 72.4°F22.4°C 74.5°F23.6°C 70.5°F21.4°C 72.7°F22.6°C
Winds 5.4 mph W8.7 kmh W 6.4 mph SW10.3 kmh SW - 1.8 mph 2.9 kmh
Wind Gusts 11.1 mph17.9 kmh 11.1 mph17.9 kmh - -
Humidity 58% 93% 56% 82%
Pressure 29.94 in1013.9 mb 29.95 in1014.2 mb 29.91 in1012.9 mb -
Hour Temp Dew Point Humidity Winds Wind Gusts Pressure Precip Precip Rate Daily Precip Total
04:30 PM 89.1°F31.7°C 72.4°F22.4°C 58% 5.4 mph W8.7 kmh W 11.1 mph17.9 kmh 29.94 in1013.9 mb 0.00 in0.0 mm 0.00 in/hr0.0 mm/hr 0.03 in0.8 mm
04:20 PM 90.2°F32.3°C 72.3°F22.4°C 56% 5.8 mph WNW9.3 kmh WNW 10.1 mph16.3 kmh 29.94 in1013.9 mb 0.00 in0.0 mm 0.00 in/hr0.0 mm/hr 0.03 in0.8 mm
04:15 PM 90.3°F32.4°C 73.0°F22.8°C 57% 4.4 mph W7.1 kmh W 5.0 mph8.0 kmh 29.94 in1013.9 mb 0.00 in0.0 mm 0.00 in/hr0.0 mm/hr 0.03 in0.8 mm
04:10 PM 90.4°F32.4°C 73.6°F23.1°C 58% 6.4 mph W10.3 kmh W 11.1 mph17.9 kmh 29.94 in1013.9 mb 0.00 in0.0 mm 0.00 in/hr0.0 mm/hr 0.03 in0.8 mm
04:00 PM 90.6°F32.6°C 73.8°F23.2°C 58% 5.3 mph NW8.5 kmh NW 9.1 mph14.6 kmh 29.94 in1013.9 mb 0.00 in0.0 mm 0.00 in/hr0.0 mm/hr 0.03 in0.8 mm
03:50 PM 90.1°F32.3°C 72.8°F22.7°C 57% 6.1 mph SW9.8 kmh SW 11.1 mph17.9 kmh 29.94 in1013.9 mb 0.00 in0.0 mm 0.00 in/hr0.0 mm/hr 0.03 in0.8 mm
03:45 PM 90.3°F32.4°C 73.0°F22.8°C 57% 3.1 mph WSW5.0 kmh WSW 4.0 mph6.4 kmh 29.95 in1014.2 mb 0.00 in0.0 mm 0.00 in/hr0.0 mm/hr 0.03 in0.8 mm
03:40 PM 90.3°F32.4°C 73.5°F23.1°C 58% 4.3 mph SW6.9 kmh SW 6.1 mph9.8 kmh 29.95 in1014.2 mb 0.00 in0.0 mm 0.00 in/hr0.0 mm/hr 0.03 in0.8 mm
03:30 PM 89.7°F32.1°C 73.5°F23.1°C 59% 6.4 mph WSW10.3 kmh WSW 10.1 mph16.3 kmh 29.95 in1014.2 mb 0.00 in0.0 mm 0.00 in/hr0.0 mm/hr 0.03 in0.8 mm
03:20 PM 89.1°F31.7°C 73.4°F23.0°C 60% 4.1 mph S6.6 kmh S 7.1 mph11.4 kmh 29.95 in1014.2 mb 0.00 in0.0 mm 0.00 in/hr0.0 mm/hr 0.03 in0.8 mm
03:15 PM 88.7°F31.5°C 73.0°F22.8°C 60% 2.7 mph S4.3 kmh S 5.0 mph8.0 kmh 29.95 in1014.2 mb 0.00 in0.0 mm 0.00 in/hr0.0 mm/hr 0.03 in0.8 mm
03:10 PM 88.6°F31.4°C 72.9°F22.7°C 60% 4.4 mph SW7.1 kmh SW 8.1 mph13.0 kmh 29.95 in1014.2 mb 0.00 in0.0 mm 0.00 in/hr0.0 mm/hr 0.03 in0.8 mm
03:00 PM 88.3°F31.3°C 72.2°F22.3°C 59% 6.4 mph SW10.3 kmh SW 10.1 mph16.3 kmh 29.95 in1014.2 mb 0.00 in0.0 mm 0.00 in/hr0.0 mm/hr 0.03 in0.8 mm
02:50 PM 88.8°F31.6°C 72.6°F22.6°C 59% 2.8 mph S4.5 kmh S 8.1 mph13.0 kmh 29.95 in1014.2 mb 0.00 in0.0 mm 0.00 in/hr0.0 mm/hr 0.03 in0.8 mm
02:45 PM 88.4°F31.3°C 74.2°F23.4°C 63% 4.4 mph WSW7.1 kmh WSW 8.1 mph13.0 kmh 29.95 in1014.2 mb 0.00 in0.0 mm 0.00 in/hr0.0 mm/hr 0.03 in0.8 mm
02:40 PM 87.9°F31.1°C 73.3°F22.9°C 62% 2.9 mph WSW4.7 kmh WSW 6.1 mph9.8 kmh 29.95 in1014.2 mb 0.00 in0.0 mm 0.00 in/hr0.0 mm/hr 0.03 in0.8 mm
02:30 PM 87.7°F30.9°C 74.0°F23.3°C 64% 1.6 mph WSW2.6 kmh WSW 2.0 mph3.2 kmh 29.95 in1014.2 mb 0.00 in0.0 mm 0.00 in/hr0.0 mm/hr 0.03 in0.8 mm
02:20 PM 86.8°F30.4°C 73.6°F23.1°C 65% 3.2 mph NW5.1 kmh NW 5.0 mph8.0 kmh 29.95 in1014.2 mb 0.00 in0.0 mm 0.00 in/hr0.0 mm/hr 0.03 in0.8 mm
02:15 PM 86.5°F30.3°C 73.8°F23.2°C 66% 1.7 mph W2.7 kmh W 3.0 mph4.8 kmh 29.95 in1014.2 mb 0.00 in0.0 mm 0.00 in/hr0.0 mm/hr 0.03 in0.8 mm
02:10 PM 85.9°F29.9°C 73.7°F23.2°C 67% 3.4 mph SW5.5 kmh SW 8.1 mph13.0 kmh 29.95 in1014.2 mb 0.00 in0.0 mm 0.00 in/hr0.0 mm/hr 0.03 in0.8 mm
02:00 PM 85.2°F29.6°C 74.3°F23.5°C 70% 3.2 mph WSW5.1 kmh WSW 7.1 mph11.4 kmh 29.95 in1014.2 mb 0.00 in0.0 mm 0.00 in/hr0.0 mm/hr 0.03 in0.8 mm
01:50 PM 84.3°F29.1°C 74.3°F23.5°C 72% 4.3 mph NNW6.9 kmh NNW 6.1 mph9.8 kmh 29.95 in1014.2 mb 0.00 in0.0 mm 0.00 in/hr0.0 mm/hr 0.03 in0.8 mm
01:45 PM 84.0°F28.9°C 74.0°F23.3°C 72% 3.5 mph NNW5.6 kmh NNW 5.0 mph8.0 kmh 29.95 in1014.2 mb 0.00 in0.0 mm 0.00 in/hr0.0 mm/hr 0.03 in0.8 mm
01:40 PM 83.7°F28.7°C 73.7°F23.2°C 72% 1.4 mph NNW2.3 kmh NNW 6.1 mph9.8 kmh 29.95 in1014.2 mb 0.00 in0.0 mm 0.00 in/hr0.0 mm/hr 0.03 in0.8 mm
01:30 PM 82.6°F28.1°C 73.8°F23.2°C 75% 1.6 mph NNW2.6 kmh NNW 7.1 mph11.4 kmh 29.95 in1014.2 mb 0.00 in0.0 mm 0.00 in/hr0.0 mm/hr 0.03 in0.8 mm
01:20 PM 81.7°F27.6°C 73.4°F23.0°C 76% 3.1 mph NNW5.0 kmh NNW 6.1 mph9.8 kmh 29.95 in1014.2 mb 0.00 in0.0 mm 0.00 in/hr0.0 mm/hr 0.03 in0.8 mm
01:15 PM 81.5°F27.5°C 73.2°F22.9°C 76% 4.2 mph NNW6.8 kmh NNW 5.0 mph8.0 kmh 29.95 in1014.2 mb 0.00 in0.0 mm 0.00 in/hr0.0 mm/hr 0.03 in0.8 mm
01:10 PM 81.2°F27.3°C 72.9°F22.7°C 76% 2.4 mph NNW3.9 kmh NNW 4.0 mph6.4 kmh 29.95 in1014.2 mb 0.00 in0.0 mm 0.00 in/hr0.0 mm/hr 0.03 in0.8 mm
01:00 PM 80.5°F26.9°C 72.6°F22.6°C 77% 4.4 mph NNW7.1 kmh NNW 8.1 mph13.0 kmh 29.95 in1014.2 mb 0.00 in0.0 mm 0.00 in/hr0.0 mm/hr 0.03 in0.8 mm
12:50 PM 80.3°F26.8°C 72.8°F22.7°C 78% 0.3 mph NNW0.5 kmh NNW 1.0 mph1.6 kmh 29.95 in1014.2 mb 0.00 in0.0 mm 0.00 in/hr0.0 mm/hr 0.03 in0.8 mm
12:45 PM 79.7°F26.5°C 72.6°F22.6°C 79% 2.6 mph NNW4.2 kmh NNW 4.0 mph6.4 kmh 29.95 in1014.2 mb 0.00 in0.0 mm 0.00 in/hr0.0 mm/hr 0.03 in0.8 mm
12:40 PM 79.3°F26.3°C 72.6°F22.6°C 80% 2.9 mph WSW4.7 kmh WSW 9.1 mph14.6 kmh 29.95 in1014.2 mb 0.00 in0.0 mm 0.00 in/hr0.0 mm/hr 0.03 in0.8 mm
12:30 PM 78.5°F25.8°C 72.1°F22.3°C 81% 1.6 mph S2.6 kmh S 6.1 mph9.8 kmh 29.95 in1014.2 mb 0.00 in0.0 mm 0.00 in/hr0.0 mm/hr 0.03 in0.8 mm
12:20 PM 77.8°F25.4°C 71.8°F22.1°C 82% 0.5 mph SW0.8 kmh SW 1.0 mph1.6 kmh 29.95 in1014.2 mb 0.00 in0.0 mm 0.00 in/hr0.0 mm/hr 0.03 in0.8 mm
12:15 PM 77.5°F25.3°C 71.9°F22.2°C 83% 3.0 mph SW4.8 kmh SW 6.1 mph9.8 kmh 29.95 in1014.2 mb 0.00 in0.0 mm 0.00 in/hr0.0 mm/hr 0.03 in0.8 mm
12:10 PM 77.1°F25.1°C 71.6°F22.0°C 83% 1.8 mph SW2.9 kmh SW 3.0 mph4.8 kmh 29.95 in1014.2 mb 0.00 in0.0 mm 0.00 in/hr0.0 mm/hr 0.03 in0.8 mm
12:00 PM 76.6°F24.8°C 71.4°F21.9°C 84% 3.8 mph W6.1 kmh W 5.0 mph8.0 kmh 29.95 in1014.2 mb 0.00 in0.0 mm 0.00 in/hr0.0 mm/hr 0.03 in0.8 mm
11:50 AM 76.0°F24.4°C 71.1°F21.7°C 85% 2.1 mph WSW3.4 kmh WSW 6.1 mph9.8 kmh 29.95 in1014.2 mb 0.00 in0.0 mm 0.00 in/hr0.0 mm/hr 0.03 in0.8 mm
11:45 AM 75.6°F24.2°C 71.1°F21.7°C 86% 3.0 mph SW4.8 kmh SW 5.0 mph8.0 kmh 29.95 in1014.2 mb 0.00 in0.0 mm 0.00 in/hr0.0 mm/hr 0.03 in0.8 mm
11:40 AM 75.4°F24.1°C 71.2°F21.8°C 87% 3.9 mph SW6.3 kmh SW 7.1 mph11.4 kmh 29.95 in1014.2 mb 0.00 in0.0 mm 0.00 in/hr0.0 mm/hr 0.03 in0.8 mm
11:30 AM 74.8°F23.8°C 71.0°F21.7°C 88% 1.5 mph SW2.4 kmh SW 3.0 mph4.8 kmh 29.95 in1014.2 mb 0.00 in0.0 mm 0.00 in/hr0.0 mm/hr 0.03 in0.8 mm
11:20 AM 74.4°F23.6°C 71.0°F21.7°C 89% 2.1 mph WSW3.4 kmh WSW 2.0 mph3.2 kmh 29.94 in1013.9 mb 0.00 in0.0 mm 0.00 in/hr0.0 mm/hr 0.03 in0.8 mm
11:15 AM 74.3°F23.5°C 70.8°F21.6°C 89% 2.6 mph WSW4.2 kmh WSW 5.0 mph8.0 kmh 29.94 in1013.9 mb 0.00 in0.0 mm 0.00 in/hr0.0 mm/hr 0.03 in0.8 mm
11:10 AM 74.2°F23.4°C 70.7°F21.5°C 89% 2.6 mph WSW4.2 kmh WSW 6.1 mph9.8 kmh 29.94 in1013.9 mb 0.00 in0.0 mm 0.00 in/hr0.0 mm/hr 0.03 in0.8 mm
11:00 AM 74.0°F23.3°C 70.5°F21.4°C 89% 2.0 mph SSW3.2 kmh SSW 4.0 mph6.4 kmh 29.94 in1013.9 mb 0.00 in0.0 mm 0.00 in/hr0.0 mm/hr 0.03 in0.8 mm
10:50 AM 73.8°F23.2°C 70.7°F21.5°C 90% 1.2 mph SW1.9 kmh SW 3.0 mph4.8 kmh 29.94 in1013.9 mb 0.00 in0.0 mm 0.00 in/hr0.0 mm/hr 0.03 in0.8 mm
10:45 AM 73.7°F23.2°C 70.6°F21.4°C 90% 0.1 mph SW0.2 kmh SW 3.0 mph4.8 kmh 29.94 in1013.9 mb 0.00 in0.0 mm 0.00 in/hr0.0 mm/hr 0.03 in0.8 mm
10:40 AM 73.6°F23.1°C 70.8°F21.6°C 91% 2.1 mph WSW3.4 kmh WSW 3.0 mph4.8 kmh 29.93 in1013.5 mb 0.00 in0.0 mm 0.00 in/hr0.0 mm/hr 0.03 in0.8 mm
10:30 AM 73.5°F23.1°C 70.7°F21.5°C 91% 2.0 mph SW3.2 kmh SW 5.0 mph8.0 kmh 29.93 in1013.5 mb 0.00 in0.0 mm 0.00 in/hr0.0 mm/hr 0.03 in0.8 mm
10:20 AM 73.4°F23.0°C 70.9°F21.6°C 92% 1.7 mph SW2.7 kmh SW 4.0 mph6.4 kmh 29.93 in1013.5 mb 0.00 in0.0 mm 0.00 in/hr0.0 mm/hr 0.03 in0.8 mm
10:15 AM 73.4°F23.0°C 70.9°F21.6°C 92% 1.9 mph WSW3.1 kmh WSW 3.0 mph4.8 kmh 29.93 in1013.5 mb 0.00 in0.0 mm 0.00 in/hr0.0 mm/hr 0.03 in0.8 mm
10:10 AM 73.4°F23.0°C 70.9°F21.6°C 92% 1.3 mph WSW2.1 kmh WSW 3.0 mph4.8 kmh 29.93 in1013.5 mb 0.00 in0.0 mm 0.00 in/hr0.0 mm/hr 0.03 in0.8 mm
10:00 AM 73.5°F23.1°C 71.0°F21.7°C 92% 0.1 mph SW0.2 kmh SW -- 29.92 in1013.2 mb 0.00 in0.0 mm 0.00 in/hr0.0 mm/hr 0.03 in0.8 mm
09:50 AM 73.5°F23.1°C 71.0°F21.7°C 92% 2.2 mph SW3.5 kmh SW 3.0 mph4.8 kmh 29.92 in1013.2 mb 0.00 in0.0 mm 0.00 in/hr0.0 mm/hr 0.03 in0.8 mm
09:45 AM 73.5°F23.1°C 71.0°F21.7°C 92% 1.2 mph SW1.9 kmh SW 4.0 mph6.4 kmh 29.92 in1013.2 mb 0.00 in0.0 mm 0.00 in/hr0.0 mm/hr 0.03 in0.8 mm
09:40 AM 73.6°F23.1°C 71.1°F21.7°C 92% Calm Calm -- 29.92 in1013.2 mb 0.00 in0.0 mm 0.00 in/hr0.0 mm/hr 0.03 in0.8 mm
09:30 AM 73.7°F23.2°C 71.5°F21.9°C 93% Calm Calm 1.0 mph1.6 kmh 29.91 in1012.9 mb 0.00 in0.0 mm 0.00 in/hr0.0 mm/hr 0.03 in0.8 mm
09:20 AM 73.9°F23.3°C 71.7°F22.1°C 93% Calm Calm -- 29.91 in1012.9 mb 0.00 in0.0 mm 0.00 in/hr0.0 mm/hr 0.03 in0.8 mm
09:15 AM 73.9°F23.3°C 71.7°F22.1°C 93% Calm Calm -- 29.91 in1012.9 mb 0.00 in0.0 mm 0.00 in/hr0.0 mm/hr 0.03 in0.8 mm
09:10 AM 74.0°F23.3°C 71.8°F22.1°C 93% Calm Calm -- 29.91 in1012.9 mb 0.00 in0.0 mm 0.00 in/hr0.0 mm/hr 0.03 in0.8 mm
09:00 AM 74.1°F23.4°C 71.9°F22.2°C 93% Calm Calm -- 29.91 in1012.9 mb 0.00 in0.0 mm 0.00 in/hr0.0 mm/hr 0.03 in0.8 mm
08:50 AM 74.3°F23.5°C 72.1°F22.3°C 93% 1.6 mph SW2.6 kmh SW 4.0 mph6.4 kmh 29.91 in1012.9 mb 0.00 in0.0 mm 0.00 in/hr0.0 mm/hr 0.03 in0.8 mm
08:45 AM 74.3°F23.5°C 72.1°F22.3°C 93% Calm Calm -- 29.91 in1012.9 mb 0.00 in0.0 mm 0.00 in/hr0.0 mm/hr 0.03 in0.8 mm
08:40 AM 74.4°F23.6°C 72.2°F22.3°C 93% 0.1 mph SW0.2 kmh SW -- 29.91 in1012.9 mb 0.00 in0.0 mm 0.00 in/hr0.0 mm/hr 0.03 in0.8 mm
08:30 AM 74.4°F23.6°C 72.2°F22.3°C 93% 2.1 mph W3.4 kmh W 3.0 mph4.8 kmh 29.91 in1012.9 mb 0.00 in0.0 mm 0.00 in/hr0.0 mm/hr 0.03 in0.8 mm
08:20 AM 74.3°F23.5°C 72.2°F22.3°C 93% 2.4 mph WSW3.9 kmh WSW 4.0 mph6.4 kmh 29.91 in1012.9 mb 0.00 in0.0 mm 0.00 in/hr0.0 mm/hr 0.03 in0.8 mm
08:15 AM 74.3°F23.5°C 72.2°F22.3°C 93% 3.2 mph WSW5.1 kmh WSW 4.0 mph6.4 kmh 29.91 in1012.9 mb 0.00 in0.0 mm 0.00 in/hr0.0 mm/hr 0.03 in0.8 mm
08:10 AM 74.3°F23.5°C 72.1°F22.3°C 93% 1.7 mph WSW2.7 kmh WSW 2.0 mph3.2 kmh 29.92 in1013.2 mb 0.00 in0.0 mm 0.00 in/hr0.0 mm/hr 0.03 in0.8 mm
08:00 AM 74.3°F23.5°C 72.1°F22.3°C 93% 0.8 mph SW1.3 kmh SW 1.0 mph1.6 kmh 29.92 in1013.2 mb 0.00 in0.0 mm 0.00 in/hr0.0 mm/hr 0.03 in0.8 mm
07:50 AM 74.2°F23.4°C 72.0°F22.2°C 93% 2.4 mph SW3.9 kmh SW 4.0 mph6.4 kmh 29.92 in1013.2 mb 0.00 in0.0 mm 0.00 in/hr0.0 mm/hr 0.03 in0.8 mm
07:45 AM 74.2°F23.4°C 72.0°F22.2°C 93% 1.5 mph SW2.4 kmh SW 2.0 mph3.2 kmh 29.92 in1013.2 mb 0.00 in0.0 mm 0.00 in/hr0.0 mm/hr 0.03 in0.8 mm
07:40 AM 74.2°F23.4°C 72.0°F22.2°C 93% 2.1 mph SW3.4 kmh SW 5.0 mph8.0 kmh 29.92 in1013.2 mb 0.00 in0.0 mm 0.00 in/hr0.0 mm/hr 0.03 in0.8 mm
07:30 AM 74.2°F23.4°C 71.7°F22.1°C 92% 0.1 mph SW0.2 kmh SW 2.0 mph3.2 kmh 29.92 in1013.2 mb 0.00 in0.0 mm 0.00 in/hr0.0 mm/hr 0.03 in0.8 mm
07:20 AM 74.2°F23.4°C 71.7°F22.1°C 92% Calm Calm -- 29.92 in1013.2 mb 0.00 in0.0 mm 0.00 in/hr0.0 mm/hr 0.03 in0.8 mm
07:15 AM 74.2°F23.4°C 71.7°F22.1°C 92% Calm Calm -- 29.92 in1013.2 mb 0.00 in0.0 mm 0.00 in/hr0.0 mm/hr 0.03 in0.8 mm
07:10 AM 74.3°F23.5°C 71.8°F22.1°C 92% 0.8 mph WSW1.3 kmh WSW 2.0 mph3.2 kmh 29.92 in1013.2 mb 0.00 in0.0 mm 0.00 in/hr0.0 mm/hr 0.03 in0.8 mm
07:00 AM 74.4°F23.6°C 71.9°F22.2°C 92% Calm Calm -- 29.92 in1013.2 mb 0.00 in0.0 mm 0.00 in/hr0.0 mm/hr 0.03 in0.8 mm
06:50 AM 74.7°F23.7°C 72.2°F22.3°C 92% Calm Calm -- 29.93 in1013.5 mb 0.00 in0.0 mm 0.00 in/hr0.0 mm/hr 0.03 in0.8 mm
06:45 AM 74.8°F23.8°C 72.0°F22.2°C 91% Calm Calm -- 29.93 in1013.5 mb 0.00 in0.0 mm 0.00 in/hr0.0 mm/hr 0.03 in0.8 mm
06:40 AM 74.9°F23.8°C 72.1°F22.3°C 91% Calm Calm -- 29.93 in1013.5 mb 0.00 in0.0 mm 0.00 in/hr0.0 mm/hr 0.03 in0.8 mm
06:30 AM 75.3°F24.1°C 72.5°F22.5°C 91% Calm Calm -- 29.93 in1013.5 mb 0.00 in0.0 mm 0.00 in/hr0.0 mm/hr 0.03 in0.8 mm
06:20 AM 75.4°F24.1°C 72.6°F22.6°C 91% Calm Calm -- 29.93 in1013.5 mb 0.00 in0.0 mm 0.00 in/hr0.0 mm/hr 0.03 in0.8 mm
06:15 AM 75.4°F24.1°C 72.6°F22.6°C 91% 0.6 mph W1.0 kmh W 1.0 mph1.6 kmh 29.93 in1013.5 mb 0.00 in0.0 mm 0.00 in/hr0.0 mm/hr 0.03 in0.8 mm
06:10 AM 75.4°F24.1°C 72.6°F22.6°C 91% 1.2 mph W1.9 kmh W 2.0 mph3.2 kmh 29.93 in1013.5 mb 0.00 in0.0 mm 0.00 in/hr0.0 mm/hr 0.03 in0.8 mm
06:00 AM 75.5°F24.2°C 72.7°F22.6°C 91% 2.7 mph W4.3 kmh W 4.0 mph6.4 kmh 29.93 in1013.5 mb 0.00 in0.0 mm 0.00 in/hr0.0 mm/hr 0.03 in0.8 mm
05:50 AM 75.6°F24.2°C 72.8°F22.7°C 91% 1.7 mph W2.7 kmh W 4.0 mph6.4 kmh 29.94 in1013.9 mb 0.00 in0.0 mm 0.00 in/hr0.0 mm/hr 0.03 in0.8 mm
05:45 AM 75.6°F24.2°C 72.8°F22.7°C 91% 2.7 mph WNW4.3 kmh WNW 4.0 mph6.4 kmh 29.94 in1013.9 mb 0.00 in0.0 mm 0.00 in/hr0.0 mm/hr 0.03 in0.8 mm
05:40 AM 75.7°F24.3°C 72.5°F22.5°C 90% 4.6 mph W7.4 kmh W 6.1 mph9.8 kmh 29.94 in1013.9 mb 0.00 in0.0 mm 0.00 in/hr0.0 mm/hr 0.03 in0.8 mm
05:30 AM 75.8°F24.3°C 72.6°F22.6°C 90% 3.2 mph W5.1 kmh W 5.0 mph8.0 kmh 29.94 in1013.9 mb 0.00 in0.0 mm 0.00 in/hr0.0 mm/hr 0.03 in0.8 mm
05:20 AM 75.9°F24.4°C 72.7°F22.6°C 90% 4.9 mph W7.9 kmh W 7.1 mph11.4 kmh 29.94 in1013.9 mb 0.00 in0.0 mm 0.00 in/hr0.0 mm/hr 0.03 in0.8 mm
05:15 AM 75.9°F24.4°C 72.7°F22.6°C 90% 4.2 mph NW6.8 kmh NW 8.1 mph13.0 kmh 29.94 in1013.9 mb 0.00 in0.0 mm 0.00 in/hr0.0 mm/hr 0.03 in0.8 mm
05:10 AM 75.9°F24.4°C 72.4°F22.4°C 89% 3.1 mph WNW5.0 kmh WNW 4.0 mph6.4 kmh 29.94 in1013.9 mb 0.00 in0.0 mm 0.00 in/hr0.0 mm/hr 0.03 in0.8 mm
05:00 AM 76.1°F24.5°C 73.0°F22.8°C 90% 2.6 mph WSW4.2 kmh WSW 4.0 mph6.4 kmh 29.94 in1013.9 mb 0.00 in0.0 mm 0.00 in/hr0.0 mm/hr 0.03 in0.8 mm
04:50 AM 76.3°F24.6°C 73.2°F22.9°C 90% 2.3 mph SSW3.7 kmh SSW 3.0 mph4.8 kmh 29.93 in1013.5 mb 0.00 in0.0 mm 0.00 in/hr0.0 mm/hr 0.03 in0.8 mm
04:45 AM 76.5°F24.7°C 73.3°F22.9°C 90% 5.0 mph SW8.0 kmh SW 9.1 mph14.6 kmh 29.93 in1013.5 mb 0.00 in0.0 mm 0.00 in/hr0.0 mm/hr 0.03 in0.8 mm
04:40 AM 76.5°F24.7°C 73.4°F23.0°C 90% 3.4 mph S5.5 kmh S 7.1 mph11.4 kmh 29.93 in1013.5 mb 0.00 in0.0 mm 0.00 in/hr0.0 mm/hr 0.03 in0.8 mm
04:30 AM 76.7°F24.8°C 73.2°F22.9°C 89% 2.8 mph SW4.5 kmh SW 6.1 mph9.8 kmh 29.94 in1013.9 mb 0.00 in0.0 mm 0.00 in/hr0.0 mm/hr 0.03 in0.8 mm
04:20 AM 76.9°F24.9°C 73.4°F23.0°C 89% 3.7 mph SSW6.0 kmh SSW 7.1 mph11.4 kmh 29.94 in1013.9 mb 0.00 in0.0 mm 0.00 in/hr0.0 mm/hr 0.03 in0.8 mm
04:15 AM 76.9°F24.9°C 73.4°F23.0°C 89% 2.7 mph SSW4.3 kmh SSW 4.0 mph6.4 kmh 29.93 in1013.5 mb 0.00 in0.0 mm 0.00 in/hr0.0 mm/hr 0.03 in0.8 mm
04:10 AM 77.0°F25.0°C 73.2°F22.9°C 88% 1.3 mph SSW2.1 kmh SSW 2.0 mph3.2 kmh 29.94 in1013.9 mb 0.00 in0.0 mm 0.00 in/hr0.0 mm/hr 0.03 in0.8 mm
04:00 AM 77.5°F25.3°C 73.3°F22.9°C 87% 3.1 mph S5.0 kmh S 5.0 mph8.0 kmh 29.94 in1013.9 mb 0.03 in0.8 mm 0.04 in/hr1.0 mm/hr 0.03 in0.8 mm
03:50 AM 77.8°F25.4°C 73.0°F22.8°C 85% 2.0 mph S3.2 kmh S 4.0 mph6.4 kmh 29.94 in1013.9 mb 0.00 in0.0 mm 0.00 in/hr0.0 mm/hr 0.00 in0.0 mm
03:45 AM 78.0°F25.6°C 73.1°F22.8°C 85% Calm Calm -- 29.94 in1013.9 mb 0.00 in0.0 mm 0.00 in/hr0.0 mm/hr 0.00 in0.0 mm
03:40 AM 78.0°F25.6°C 73.1°F22.8°C 85% Calm Calm -- 29.94 in1013.9 mb 0.00 in0.0 mm 0.00 in/hr0.0 mm/hr 0.00 in0.0 mm
03:30 AM 78.2°F25.7°C 72.9°F22.7°C 84% Calm Calm -- 29.94 in1013.9 mb 0.00 in0.0 mm 0.00 in/hr0.0 mm/hr 0.00 in0.0 mm
03:20 AM 78.4°F25.8°C 73.1°F22.8°C 84% Calm Calm -- 29.94 in1013.9 mb 0.00 in0.0 mm 0.00 in/hr0.0 mm/hr 0.00 in0.0 mm
03:15 AM 78.4°F25.8°C 73.2°F22.9°C 84% Calm Calm -- 29.94 in1013.9 mb 0.00 in0.0 mm 0.00 in/hr0.0 mm/hr 0.00 in0.0 mm
03:10 AM 78.5°F25.8°C 73.2°F22.9°C 84% Calm Calm -- 29.94 in1013.9 mb 0.00 in0.0 mm 0.00 in/hr0.0 mm/hr 0.00 in0.0 mm
03:00 AM 78.7°F25.9°C 73.4°F23.0°C 84% Calm Calm -- 29.94 in1013.9 mb 0.00 in0.0 mm 0.00 in/hr0.0 mm/hr 0.00 in0.0 mm
02:50 AM 78.9°F26.1°C 73.3°F22.9°C 83% Calm Calm -- 29.94 in1013.9 mb 0.00 in0.0 mm 0.00 in/hr0.0 mm/hr 0.00 in0.0 mm
02:45 AM 78.9°F26.1°C 73.3°F22.9°C 83% Calm Calm -- 29.94 in1013.9 mb 0.00 in0.0 mm 0.00 in/hr0.0 mm/hr 0.00 in0.0 mm
02:40 AM 79.0°F26.1°C 73.4°F23.0°C 83% Calm Calm -- 29.94 in1013.9 mb 0.00 in0.0 mm 0.00 in/hr0.0 mm/hr 0.00 in0.0 mm
02:30 AM 79.0°F26.1°C 73.4°F23.0°C 83% Calm Calm -- 29.95 in1014.2 mb 0.00 in0.0 mm 0.00 in/hr0.0 mm/hr 0.00 in0.0 mm
02:20 AM 79.1°F26.2°C 73.5°F23.1°C 83% Calm Calm -- 29.95 in1014.2 mb 0.00 in0.0 mm 0.00 in/hr0.0 mm/hr 0.00 in0.0 mm
02:15 AM 79.1°F26.2°C 73.5°F23.1°C 83% Calm Calm -- 29.95 in1014.2 mb 0.00 in0.0 mm 0.00 in/hr0.0 mm/hr 0.00 in0.0 mm
02:10 AM 79.3°F26.3°C 73.7°F23.2°C 83% Calm Calm -- 29.95 in1014.2 mb 0.00 in0.0 mm 0.00 in/hr0.0 mm/hr 0.00 in0.0 mm
02:00 AM 79.4°F26.3°C 73.4°F23.0°C 82% Calm Calm -- 29.95 in1014.2 mb 0.00 in0.0 mm 0.00 in/hr0.0 mm/hr 0.00 in0.0 mm
01:50 AM 79.7°F26.5°C 73.7°F23.2°C 82% Calm Calm -- 29.95 in1014.2 mb 0.00 in0.0 mm 0.00 in/hr0.0 mm/hr 0.00 in0.0 mm
01:45 AM 79.8°F26.6°C 73.8°F23.2°C 82% 0.1 mph SSW0.2 kmh SSW 1.0 mph1.6 kmh 29.95 in1014.2 mb 0.00 in0.0 mm 0.00 in/hr0.0 mm/hr 0.00 in0.0 mm
01:40 AM 79.9°F26.6°C 73.9°F23.3°C 82% 0.1 mph SSW0.2 kmh SSW -- 29.95 in1014.2 mb 0.00 in0.0 mm 0.00 in/hr0.0 mm/hr 0.00 in0.0 mm
01:30 AM 80.2°F26.8°C 73.8°F23.2°C 81% Calm Calm -- 29.95 in1014.2 mb 0.00 in0.0 mm 0.00 in/hr0.0 mm/hr 0.00 in0.0 mm
01:20 AM 80.4°F26.9°C 74.1°F23.4°C 81% Calm Calm -- 29.94 in1013.9 mb 0.00 in0.0 mm 0.00 in/hr0.0 mm/hr 0.00 in0.0 mm
01:15 AM 80.5°F26.9°C 73.7°F23.2°C 80% 1.0 mph SSW1.6 kmh SSW 2.0 mph3.2 kmh 29.94 in1013.9 mb 0.00 in0.0 mm 0.00 in/hr0.0 mm/hr 0.00 in0.0 mm
01:10 AM 80.6°F27.0°C 73.8°F23.2°C 80% Calm Calm -- 29.93 in1013.5 mb 0.00 in0.0 mm 0.00 in/hr0.0 mm/hr 0.00 in0.0 mm
01:00 AM 80.8°F27.1°C 74.0°F23.3°C 80% 1.2 mph S1.9 kmh S 3.0 mph4.8 kmh 29.93 in1013.5 mb 0.00 in0.0 mm 0.00 in/hr0.0 mm/hr 0.00 in0.0 mm
12:50 AM 80.9°F27.2°C 73.8°F23.2°C 79% Calm Calm -- 29.93 in1013.5 mb 0.00 in0.0 mm 0.00 in/hr0.0 mm/hr 0.00 in0.0 mm
12:45 AM 81.0°F27.2°C 73.9°F23.3°C 79% 1.1 mph S1.8 kmh S 2.0 mph3.2 kmh 29.93 in1013.5 mb 0.00 in0.0 mm 0.00 in/hr0.0 mm/hr 0.00 in0.0 mm
12:40 AM 81.2°F27.3°C 74.0°F23.3°C 79% Calm Calm -- 29.93 in1013.5 mb 0.00 in0.0 mm 0.00 in/hr0.0 mm/hr 0.00 in0.0 mm
12:30 AM 81.4°F27.4°C 73.9°F23.3°C 78% 0.2 mph S0.3 kmh S -- 29.93 in1013.5 mb 0.00 in0.0 mm 0.00 in/hr0.0 mm/hr 0.00 in0.0 mm
12:20 AM 81.8°F27.7°C 74.2°F23.4°C 78% Calm Calm -- 29.93 in1013.5 mb 0.00 in0.0 mm 0.00 in/hr0.0 mm/hr 0.00 in0.0 mm
12:15 AM 81.9°F27.7°C 74.3°F23.5°C 78% Calm Calm -- 29.93 in1013.5 mb 0.00 in0.0 mm 0.00 in/hr0.0 mm/hr 0.00 in0.0 mm
12:10 AM 81.9°F27.7°C 74.3°F23.5°C 78% 0.1 mph SSW0.2 kmh SSW 2.0 mph3.2 kmh 29.93 in1013.5 mb 0.00 in0.0 mm 0.00 in/hr0.0 mm/hr 0.00 in0.0 mm
12:00 AM 82.0°F27.8°C 74.5°F23.6°C 78% Calm Calm -- 29.93 in1013.5 mb 0.00 in0.0 mm 0.00 in/hr0.0 mm/hr 0.00 in0.0 mm